METAR Data
IDs: Format: Raw Decoded Include TAF

Data at: 2221 UTC 01 Dec 2021

METAR for:KFDY (Findlay Arpt, OH, US)
Text:KFDY 012206Z AUTO 16004KT 9SM -RA SCT010 OVC036 07/05 A2988 RMK AO2 RAB2157 P0000 T00670050
Temperature: 6.7°C ( 44°F)
Dewpoint: 5.0°C ( 41°F) [RH = 89%]
Pressure (altimeter):29.88 inches Hg (1011.9 mb)
Winds:from the SSE (160 degrees) at 5 MPH (4 knots; 2.1 m/s)
Visibility: 9 sm ( 14 km)
Ceiling:3600 feet AGL
Clouds: scattered clouds at 1000 feet AGL, overcast cloud deck at 3600 feet AGL
Weather:-RA (light rain)
QC Flag:automated observation with no human augmentation